Time;durP1;ratioP1;P1;durP2;ratioP2;P2;SDS_P1;SDS_P2;PMS_P1;PMS_P2;Temp;Humidity;BMP_temperature;BMP_pressure;BME280_temperature;BME280_humidity;BME280_pressure;Samples;Min_cycle;Max_cycle;Signal;HPM_P1;HPM_P2
2022/09/08 00:00:18;;;;;;;19.30;17.43;;;;;;;;;;5037454;28;20435;-64
2022/09/08 00:02:45;;;;;;;20.23;18.13;;;;;;;;;;5037190;28;20484;-64
2022/09/08 00:05:15;;;;;;;22.90;18.97;;;;;;;;;;5037467;28;20466;-64
2022/09/08 00:07:42;;;;;;;20.80;18.77;;;;;;;;;;5037331;28;20815;-64
2022/09/08 00:10:11;;;;;;;21.07;18.93;;;;;;;;;;5037778;28;20451;-64
2022/09/08 00:12:42;;;;;;;21.63;19.43;;;;;;;;;;5036840;28;20459;-64
2022/09/08 00:15:11;;;;;;;21.83;19.50;;;;;;;;;;5037276;28;20525;-64
2022/09/08 00:17:39;;;;;;;19.67;17.87;;;;;;;;;;5037024;28;20496;-64
2022/09/08 00:20:07;;;;;;;18.93;17.13;;;;;;;;;;5037094;28;20456;-64
2022/09/08 00:22:34;;;;;;;19.97;17.87;;;;;;;;;;5036887;28;20516;-64
2022/09/08 00:25:01;;;;;;;24.30;19.80;;;;;;;;;;5036744;28;20446;-64
2022/09/08 00:27:29;;;;;;;18.63;16.90;;;;;;;;;;5036861;28;20434;-64
2022/09/08 00:29:56;;;;;;;19.97;17.97;;;;;;;;;;5036934;28;20449;-64
2022/09/08 00:32:24;;;;;;;19.73;17.27;;;;;;;;;;5036220;28;20482;-64
2022/09/08 00:34:52;;;;;;;18.60;16.80;;;;;;;;;;5036521;28;20929;-64
2022/09/08 00:37:21;;;;;;;19.37;17.43;;;;;;;;;;5036881;28;20481;-64
2022/09/08 00:39:48;;;;;;;19.40;17.37;;;;;;;;;;5036955;28;20447;-63
2022/09/08 00:42:15;;;;;;;19.53;17.73;;;;;;;;;;5036776;28;20578;-63
2022/09/08 00:44:49;;;;;;;18.73;17.03;;;;;;;;;;5037018;28;20450;-63
2022/09/08 00:47:17;;;;;;;19.03;17.13;;;;;;;;;;5036281;28;20442;-64
2022/09/08 00:49:49;;;;;;;22.50;17.63;;;;;;;;;;5036684;28;20443;-63
2022/09/08 00:52:16;;;;;;;18.80;17.13;;;;;;;;;;5036778;28;20455;-64
2022/09/08 00:54:44;;;;;;;19.20;17.30;;;;;;;;;;5036957;28;20449;-64
2022/09/08 00:57:11;;;;;;;18.13;16.37;;;;;;;;;;5036023;28;20444;-64
2022/09/08 00:59:39;;;;;;;18.93;17.20;;;;;;;;;;5036872;28;20462;-63
2022/09/08 01:02:21;;;;;;;18.90;17.20;;;;;;;;;;5036254;28;20586;-64
2022/09/08 01:04:50;;;;;;;18.27;16.40;;;;;;;;;;5035949;28;20441;-63
2022/09/08 01:12:53;;;;;;;17.90;16.10;;;;;;;;;;5035965;28;20833;-63
2022/09/08 01:15:21;;;;;;;19.00;17.13;;;;;;;;;;5036574;28;20446;-64
2022/09/08 01:17:49;;;;;;;18.90;16.90;;;;;;;;;;5035944;28;20431;-63
2022/09/08 01:20:18;;;;;;;18.77;17.07;;;;;;;;;;5035659;28;20476;-63
2022/09/08 01:22:54;;;;;;;16.73;15.03;;;;;;;;;;5035827;28;20483;-64
2022/09/08 01:25:27;;;;;;;19.17;17.30;;;;;;;;;;5035676;28;20905;-63
2022/09/08 01:27:58;;;;;;;19.77;15.70;;;;;;;;;;5035809;28;20459;-64
2022/09/08 01:30:26;;;;;;;17.87;16.07;;;;;;;;;;5035222;28;20425;-63
2022/09/08 01:32:53;;;;;;;16.97;15.40;;;;;;;;;;5035713;28;20449;-64
2022/09/08 01:35:38;;;;;;;17.10;15.30;;;;;;;;;;5036079;28;20470;-64
2022/09/08 01:38:06;;;;;;;17.20;15.40;;;;;;;;;;5035828;28;20423;-63
2022/09/08 01:40:33;;;;;;;17.13;15.53;;;;;;;;;;5035676;28;20437;-64
2022/09/08 01:43:01;;;;;;;18.07;16.27;;;;;;;;;;5035656;28;20488;-64
2022/09/08 01:45:28;;;;;;;16.33;14.80;;;;;;;;;;5035525;28;20448;-64
2022/09/08 01:47:56;;;;;;;16.57;15.00;;;;;;;;;;5035906;28;20449;-64
2022/09/08 01:50:23;;;;;;;16.57;14.97;;;;;;;;;;5035175;28;20449;-64
2022/09/08 01:52:50;;;;;;;17.00;15.30;;;;;;;;;;5035285;28;20861;-64
2022/09/08 01:55:17;;;;;;;17.73;15.83;;;;;;;;;;5035196;28;20940;-64
2022/09/08 01:57:45;;;;;;;17.50;15.83;;;;;;;;;;5035005;28;20445;-64
2022/09/08 02:00:14;;;;;;;17.03;15.60;;;;;;;;;;5035173;28;20445;-64
2022/09/08 02:02:41;;;;;;;17.30;15.53;;;;;;;;;;5034737;28;20481;-64
2022/09/08 02:05:08;;;;;;;16.10;14.63;;;;;;;;;;5035016;28;20997;-63
2022/09/08 02:07:37;;;;;;;15.90;14.40;;;;;;;;;;5034774;28;20451;-64
2022/09/08 02:10:04;;;;;;;17.60;16.00;;;;;;;;;;5034677;28;20944;-64
2022/09/08 02:12:32;;;;;;;17.60;15.80;;;;;;;;;;5035379;28;20453;-64
2022/09/08 02:14:59;;;;;;;17.23;15.63;;;;;;;;;;5034993;28;20441;-64
2022/09/08 02:17:28;;;;;;;16.93;15.23;;;;;;;;;;5035028;28;20445;-63
2022/09/08 02:19:55;;;;;;;17.70;15.97;;;;;;;;;;5034447;28;20939;-64
2022/09/08 02:22:23;;;;;;;17.27;15.73;;;;;;;;;;5034901;28;20444;-63
2022/09/08 02:24:50;;;;;;;16.87;15.17;;;;;;;;;;5034746;28;20452;-63
2022/09/08 02:27:17;;;;;;;20.87;16.30;;;;;;;;;;5034728;28;20446;-63
2022/09/08 02:29:45;;;;;;;16.80;15.10;;;;;;;;;;5034617;28;20474;-63
2022/09/08 02:32:12;;;;;;;17.60;15.80;;;;;;;;;;5034802;28;20479;-63
2022/09/08 02:34:40;;;;;;;18.80;16.80;;;;;;;;;;5034728;28;20460;-63
2022/09/08 02:37:08;;;;;;;18.13;16.70;;;;;;;;;;5034919;28;20437;-63
2022/09/08 02:39:35;;;;;;;17.87;16.27;;;;;;;;;;5034481;28;20463;-64
2022/09/08 02:42:02;;;;;;;19.43;17.53;;;;;;;;;;5034478;28;20448;-64
2022/09/08 02:44:30;;;;;;;18.00;15.67;;;;;;;;;;5034486;28;20491;-64
2022/09/08 02:46:57;;;;;;;19.50;17.57;;;;;;;;;;5034383;28;20459;-64
2022/09/08 02:49:24;;;;;;;17.77;15.33;;;;;;;;;;5034526;28;20440;-64
2022/09/08 02:51:52;;;;;;;18.07;16.20;;;;;;;;;;5033678;28;20455;-64
2022/09/08 02:54:19;;;;;;;19.07;17.07;;;;;;;;;;5030727;28;20469;-64
2022/09/08 02:56:47;;;;;;;19.33;17.47;;;;;;;;;;5032948;28;20452;-64
2022/09/08 02:59:14;;;;;;;18.80;17.10;;;;;;;;;;5033218;28;20452;-64
2022/09/08 03:01:43;;;;;;;19.80;18.00;;;;;;;;;;5033742;28;20492;-63
2022/09/08 03:04:10;;;;;;;19.50;17.60;;;;;;;;;;5033207;28;20521;-63
2022/09/08 03:06:37;;;;;;;19.37;17.47;;;;;;;;;;5033542;28;20837;-64
2022/09/08 03:09:07;;;;;;;19.20;17.27;;;;;;;;;;5033617;28;20454;-64
2022/09/08 03:11:34;;;;;;;18.03;16.27;;;;;;;;;;5033839;28;20438;-63
2022/09/08 03:14:01;;;;;;;18.37;16.40;;;;;;;;;;5033343;28;20452;-64
2022/09/08 03:16:28;;;;;;;18.90;15.63;;;;;;;;;;5033084;28;20455;-64
2022/09/08 03:18:56;;;;;;;17.93;16.20;;;;;;;;;;5033191;28;20798;-64
2022/09/08 03:21:23;;;;;;;20.13;18.20;;;;;;;;;;5033311;28;20445;-64
2022/09/08 03:23:50;;;;;;;20.80;18.83;;;;;;;;;;5033065;28;20472;-64
2022/09/08 03:26:20;;;;;;;19.93;18.03;;;;;;;;;;5033105;28;20457;-63
2022/09/08 03:28:47;;;;;;;20.47;17.60;;;;;;;;;;5033674;28;20445;-63
2022/09/08 03:31:16;;;;;;;18.87;16.97;;;;;;;;;;5032590;28;20985;-64
2022/09/08 03:33:44;;;;;;;18.57;16.87;;;;;;;;;;5032516;28;20452;-64
2022/09/08 03:36:12;;;;;;;18.97;17.20;;;;;;;;;;5033152;28;20459;-63
2022/09/08 03:38:39;;;;;;;20.00;18.10;;;;;;;;;;5033279;28;20452;-64
2022/09/08 03:41:07;;;;;;;19.90;17.93;;;;;;;;;;5033486;28;20457;-63
2022/09/08 03:43:36;;;;;;;18.73;17.07;;;;;;;;;;5033410;28;20567;-64
2022/09/08 03:46:07;;;;;;;17.50;15.80;;;;;;;;;;5033427;28;20439;-64
2022/09/08 03:48:34;;;;;;;20.17;17.57;;;;;;;;;;5033212;28;20426;-64
2022/09/08 03:51:08;;;;;;;19.90;17.93;;;;;;;;;;5033202;28;20476;-64
2022/09/08 03:53:35;;;;;;;18.73;16.93;;;;;;;;;;5033733;28;20474;-65
2022/09/08 03:56:05;;;;;;;20.20;18.20;;;;;;;;;;5033039;28;20448;-64
2022/09/08 03:58:33;;;;;;;22.47;20.37;;;;;;;;;;5033478;28;20440;-64
2022/09/08 04:01:01;;;;;;;22.77;19.27;;;;;;;;;;5031280;28;20445;-64
2022/09/08 04:03:29;;;;;;;20.17;18.13;;;;;;;;;;5033155;28;20483;-64
2022/09/08 04:05:56;;;;;;;19.53;17.63;;;;;;;;;;5033127;28;20439;-64
2022/09/08 04:08:23;;;;;;;20.53;18.53;;;;;;;;;;5033295;28;20454;-64
2022/09/08 04:10:50;;;;;;;21.07;19.07;;;;;;;;;;5032909;28;20434;-65
2022/09/08 04:13:17;;;;;;;22.20;20.00;;;;;;;;;;5033007;28;20447;-64
2022/09/08 04:15:45;;;;;;;22.07;18.53;;;;;;;;;;5033243;28;20451;-64
2022/09/08 04:18:13;;;;;;;20.97;18.97;;;;;;;;;;5033160;28;20442;-64
2022/09/08 04:20:41;;;;;;;23.17;20.57;;;;;;;;;;5032528;28;20463;-64
2022/09/08 04:23:09;;;;;;;21.83;19.83;;;;;;;;;;5032834;28;20514;-64
2022/09/08 04:25:36;;;;;;;21.50;19.40;;;;;;;;;;5032654;28;20442;-64
2022/09/08 04:28:03;;;;;;;22.67;20.47;;;;;;;;;;5033082;28;20768;-64
2022/09/08 04:30:30;;;;;;;21.37;19.23;;;;;;;;;;5032457;28;20439;-65
2022/09/08 04:32:57;;;;;;;28.90;21.63;;;;;;;;;;5032786;28;20441;-64
2022/09/08 04:35:26;;;;;;;21.50;19.20;;;;;;;;;;5032733;28;20440;-64
2022/09/08 04:37:53;;;;;;;23.90;21.43;;;;;;;;;;5032742;28;20933;-64
2022/09/08 04:40:20;;;;;;;23.10;20.90;;;;;;;;;;5032414;28;20442;-64
2022/09/08 04:42:48;;;;;;;27.03;21.70;;;;;;;;;;5032364;28;20451;-66
2022/09/08 04:45:17;;;;;;;26.90;24.00;;;;;;;;;;5035975;28;20476;-66
2022/09/08 04:47:44;;;;;;;26.23;22.70;;;;;;;;;;5036106;28;21014;-65
2022/09/08 04:50:11;;;;;;;26.37;23.57;;;;;;;;;;5036111;28;20454;-65
2022/09/08 04:52:40;;;;;;;30.93;22.97;;;;;;;;;;5036315;28;20479;-65
2022/09/08 04:55:07;;;;;;;27.07;22.67;;;;;;;;;;5036391;28;20447;-65
2022/09/08 04:57:35;;;;;;;25.50;22.90;;;;;;;;;;5036234;28;20508;-65
2022/09/08 05:00:02;;;;;;;27.53;23.67;;;;;;;;;;5036398;28;20542;-66
2022/09/08 05:02:30;;;;;;;26.60;23.80;;;;;;;;;;5036076;28;20449;-64
2022/09/08 05:04:57;;;;;;;32.67;26.37;;;;;;;;;;5035948;28;20986;-65
2022/09/08 05:07:24;;;;;;;32.17;28.17;;;;;;;;;;5035957;28;20447;-65
2022/09/08 05:09:53;;;;;;;28.93;26.07;;;;;;;;;;5035993;28;20436;-65
2022/09/08 05:12:20;;;;;;;34.50;28.50;;;;;;;;;;5036001;28;20471;-65
2022/09/08 05:14:47;;;;;;;27.23;24.27;;;;;;;;;;5035780;28;20500;-65
2022/09/08 05:17:15;;;;;;;24.77;22.17;;;;;;;;;;5035446;28;20441;-64
2022/09/08 05:19:42;;;;;;;22.80;20.47;;;;;;;;;;5035962;28;20506;-64
2022/09/08 05:22:09;;;;;;;22.43;20.13;;;;;;;;;;5035911;28;20449;-69
2022/09/08 05:24:36;;;;;;;22.20;18.57;;;;;;;;;;5035536;28;20483;-67
2022/09/08 05:27:05;;;;;;;20.10;17.90;;;;;;;;;;5035977;28;20445;-66
2022/09/08 05:29:32;;;;;;;16.60;14.83;;;;;;;;;;5035477;28;20931;-66
2022/09/08 05:31:59;;;;;;;21.40;13.63;;;;;;;;;;5035038;28;20838;-68
2022/09/08 05:34:27;;;;;;;17.90;13.87;;;;;;;;;;5035896;28;20451;-69
2022/09/08 05:36:54;;;;;;;16.30;14.60;;;;;;;;;;5035517;28;20470;-66
2022/09/08 05:39:21;;;;;;;16.90;15.20;;;;;;;;;;5035609;28;20441;-66
2022/09/08 05:41:48;;;;;;;16.87;15.27;;;;;;;;;;5035480;28;20805;-66
2022/09/08 05:44:17;;;;;;;17.30;15.60;;;;;;;;;;5035442;28;20840;-67
2022/09/08 05:46:44;;;;;;;14.47;13.20;;;;;;;;;;5035401;28;20441;-67
2022/09/08 05:49:11;;;;;;;22.83;14.07;;;;;;;;;;5035106;28;20943;-66
2022/09/08 05:51:38;;;;;;;16.47;14.60;;;;;;;;;;5034977;28;20936;-66
2022/09/08 05:54:06;;;;;;;17.03;14.77;;;;;;;;;;5035999;28;20480;-67
2022/09/08 05:56:33;;;;;;;18.10;16.33;;;;;;;;;;5034321;28;20450;-67
2022/09/08 05:59:00;;;;;;;17.50;15.70;;;;;;;;;;5035230;28;20450;-66
2022/09/08 06:01:30;;;;;;;20.97;18.77;;;;;;;;;;5034659;28;20948;-66
2022/09/08 06:03:58;;;;;;;23.27;18.83;;;;;;;;;;5035234;28;20480;-66
2022/09/08 06:06:27;;;;;;;20.30;18.30;;;;;;;;;;5035301;28;20447;-66
2022/09/08 06:08:55;;;;;;;20.47;18.53;;;;;;;;;;5035466;28;20449;-66
2022/09/08 06:11:22;;;;;;;22.20;19.80;;;;;;;;;;5035425;28;20472;-66
2022/09/08 06:13:49;;;;;;;23.33;21.03;;;;;;;;;;5034977;28;20445;-66
2022/09/08 06:16:17;;;;;;;21.17;18.73;;;;;;;;;;5034625;28;20534;-66
2022/09/08 06:18:46;;;;;;;21.00;18.90;;;;;;;;;;5034454;28;20448;-65
2022/09/08 06:21:14;;;;;;;22.10;19.80;;;;;;;;;;5034988;28;20453;-65
2022/09/08 06:23:41;;;;;;;22.30;19.87;;;;;;;;;;5034405;28;20450;-65
2022/09/08 06:26:27;;;;;;;20.40;18.17;;;;;;;;;;5034984;28;20822;-66
2022/09/08 06:28:56;;;;;;;21.53;16.33;;;;;;;;;;5034723;28;20462;-65
2022/09/08 06:31:28;;;;;;;23.20;16.93;;;;;;;;;;5034668;28;20473;-66
2022/09/08 06:33:56;;;;;;;19.77;17.63;;;;;;;;;;5034518;28;20435;-65
2022/09/08 06:36:25;;;;;;;19.60;16.33;;;;;;;;;;5034604;28;20442;-66
2022/09/08 06:38:55;;;;;;;21.57;19.07;;;;;;;;;;5034431;28;20440;-66
2022/09/08 06:41:23;;;;;;;23.27;16.87;;;;;;;;;;5034445;28;20464;-66
2022/09/08 06:43:53;;;;;;;19.10;17.23;;;;;;;;;;5034186;28;20798;-65
2022/09/08 06:46:22;;;;;;;20.90;18.90;;;;;;;;;;5034576;28;20544;-66
2022/09/08 06:48:51;;;;;;;19.33;17.23;;;;;;;;;;5034153;28;20443;-68
2022/09/08 06:51:24;;;;;;;19.60;17.50;;;;;;;;;;5034227;28;20456;-66
2022/09/08 06:53:57;;;;;;;17.93;15.97;;;;;;;;;;5034027;28;20443;-66
2022/09/08 06:56:29;;;;;;;16.87;15.17;;;;;;;;;;5033917;28;20472;-65
2022/09/08 06:58:59;;;;;;;16.17;14.67;;;;;;;;;;5033732;28;20437;-66
2022/09/08 07:01:31;;;;;;;19.10;14.83;;;;;;;;;;5034378;28;20459;-66
2022/09/08 07:04:12;;;;;;;20.73;15.37;;;;;;;;;;5033974;28;20431;-66
2022/09/08 07:06:45;;;;;;;16.23;14.67;;;;;;;;;;5034255;28;20445;-66
2022/09/08 07:09:15;;;;;;;17.47;14.90;;;;;;;;;;5033878;28;20438;-66
2022/09/08 07:11:47;;;;;;;14.87;12.33;;;;;;;;;;5033903;28;20432;-66
2022/09/08 07:14:41;;;;;;;16.07;13.90;;;;;;;;;;5033855;28;20440;-66
2022/09/08 07:17:11;;;;;;;12.73;11.53;;;;;;;;;;5033953;28;20509;-66
2022/09/08 07:19:45;;;;;;;14.83;13.33;;;;;;;;;;5033487;28;20459;-66
2022/09/08 07:22:19;;;;;;;15.07;13.70;;;;;;;;;;5033895;28;20439;-66
2022/09/08 07:24:47;;;;;;;13.03;11.73;;;;;;;;;;5033443;28;20469;-66
2022/09/08 07:27:15;;;;;;;15.03;11.60;;;;;;;;;;5034359;28;20450;-66
2022/09/08 07:29:44;;;;;;;13.47;11.17;;;;;;;;;;5033312;28;20938;-66
2022/09/08 07:32:13;;;;;;;13.93;11.60;;;;;;;;;;5032974;28;20956;-66
2022/09/08 07:34:43;;;;;;;12.70;11.60;;;;;;;;;;5033481;28;20445;-66
2022/09/08 07:37:12;;;;;;;13.17;11.77;;;;;;;;;;5033231;28;20447;-66
2022/09/08 07:39:42;;;;;;;13.97;12.37;;;;;;;;;;5033421;28;20533;-67
2022/09/08 07:42:12;;;;;;;12.50;10.97;;;;;;;;;;5033194;28;20464;-68
2022/09/08 07:44:39;;;;;;;13.70;11.47;;;;;;;;;;5033291;28;20489;-67
2022/09/08 07:47:16;;;;;;;14.03;12.53;;;;;;;;;;5033493;28;20547;-66
2022/09/08 07:49:46;;;;;;;14.13;11.67;;;;;;;;;;5033751;28;20829;-66
2022/09/08 07:52:22;;;;;;;13.13;11.17;;;;;;;;;;5033487;28;20448;-66
2022/09/08 07:55:04;;;;;;;14.30;11.43;;;;;;;;;;5032991;28;20441;-66
2022/09/08 07:57:38;;;;;;;13.70;11.00;;;;;;;;;;5033380;28;20434;-66
2022/09/08 08:00:09;;;;;;;12.07;11.00;;;;;;;;;;5032994;28;20442;-66
2022/09/08 08:02:46;;;;;;;12.10;10.93;;;;;;;;;;5033681;28;20549;-66
2022/09/08 08:05:19;;;;;;;13.33;11.93;;;;;;;;;;5033460;28;20825;-66
2022/09/08 08:07:51;;;;;;;15.70;11.53;;;;;;;;;;5033527;28;20441;-66
2022/09/08 08:10:24;;;;;;;12.30;11.20;;;;;;;;;;5033573;28;20436;-66
2022/09/08 08:12:55;;;;;;;12.40;11.20;;;;;;;;;;5032844;28;20438;-66
2022/09/08 08:15:25;;;;;;;14.80;11.40;;;;;;;;;;5032370;28;20452;-66
2022/09/08 08:17:58;;;;;;;13.37;11.77;;;;;;;;;;5033174;28;20457;-66
2022/09/08 08:20:34;;;;;;;15.00;13.60;;;;;;;;;;5036643;28;20442;-66
2022/09/08 08:23:22;;;;;;;15.90;12.50;;;;;;;;;;5037611;28;20447;-66
2022/09/08 08:25:52;;;;;;;13.50;12.10;;;;;;;;;;5011588;28;20485;-67
2022/09/08 08:28:20;;;;;;;14.33;12.93;;;;;;;;;;5036689;28;20915;-66
2022/09/08 08:30:52;;;;;;;15.90;14.23;;;;;;;;;;5036603;28;20475;-66
2022/09/08 08:33:21;;;;;;;14.13;12.60;;;;;;;;;;5037538;28;20442;-66
2022/09/08 08:35:49;;;;;;;14.17;12.40;;;;;;;;;;5037330;28;20551;-66
2022/09/08 08:38:18;;;;;;;16.03;14.40;;;;;;;;;;5037282;28;20487;-67
2022/09/08 08:40:57;;;;;;;16.77;15.17;;;;;;;;;;5036706;28;20466;-67
2022/09/08 08:43:38;;;;;;;16.80;15.20;;;;;;;;;;5037264;28;20439;-67
2022/09/08 08:46:20;;;;;;;16.73;15.10;;;;;;;;;;5037031;28;20503;-68
2022/09/08 08:49:00;;;;;;;16.70;15.17;;;;;;;;;;5037210;28;20577;-69
2022/09/08 08:51:42;;;;;;;14.80;13.40;;;;;;;;;;5036593;28;20438;-70
2022/09/08 08:54:15;;;;;;;17.07;15.37;;;;;;;;;;5034253;28;20466;-71
2022/09/08 08:56:47;;;;;;;17.23;15.23;;;;;;;;;;5036429;28;20492;-73
2022/09/08 08:59:38;;;;;;;17.50;15.40;;;;;;;;;;5036582;28;20422;-73
2022/09/08 09:02:17;;;;;;;22.60;18.30;;;;;;;;;;5021410;28;20964;-72
2022/09/08 09:05:08;;;;;;;17.93;16.10;;;;;;;;;;5036409;28;20822;-71
2022/09/08 09:07:47;;;;;;;17.77;16.07;;;;;;;;;;5026251;28;20455;-72
2022/09/08 09:10:31;;;;;;;16.83;15.20;;;;;;;;;;5036304;28;20428;-72
2022/09/08 09:13:12;;;;;;;18.10;16.30;;;;;;;;;;5036247;28;20442;-71
2022/09/08 09:15:54;;;;;;;16.87;15.17;;;;;;;;;;5036101;28;20441;-71
2022/09/08 09:18:41;;;;;;;18.80;16.63;;;;;;;;;;5034213;28;20527;-71
2022/09/08 09:21:14;;;;;;;18.17;15.90;;;;;;;;;;5035945;28;20428;-72
2022/09/08 09:23:47;;;;;;;17.83;16.13;;;;;;;;;;5036293;28;20506;-71
2022/09/08 09:26:18;;;;;;;14.67;13.40;;;;;;;;;;5035787;28;20473;-71
2022/09/08 09:29:03;;;;;;;15.90;14.50;;;;;;;;;;5035930;28;20433;-71
2022/09/08 09:31:49;;;;;;;17.67;16.07;;;;;;;;;;5034209;28;20572;-71
2022/09/08 09:34:26;;;;;;;14.63;13.30;;;;;;;;;;5035648;28;20846;-71
2022/09/08 09:37:11;;;;;;;14.30;13.10;;;;;;;;;;5035769;28;20433;-72
2022/09/08 09:39:50;;;;;;;14.67;13.37;;;;;;;;;;5035116;28;20451;-71
2022/09/08 09:42:33;;;;;;;12.87;11.60;;;;;;;;;;5036414;28;20433;-71
2022/09/08 09:45:08;;;;;;;12.90;11.60;;;;;;;;;;5035503;28;20474;-71
2022/09/08 09:47:41;;;;;;;11.57;10.47;;;;;;;;;;5036334;28;20444;-71
2022/09/08 09:50:30;;;;;;;10.40;9.40;;;;;;;;;;5035392;28;20917;-71
2022/09/08 09:53:02;;;;;;;9.43;8.63;;;;;;;;;;5035125;28;20457;-71
2022/09/08 09:55:41;;;;;;;9.80;8.80;;;;;;;;;;5035529;28;20440;-70
2022/09/08 09:58:35;;;;;;;10.50;7.87;;;;;;;;;;5035062;28;20440;-70
2022/09/08 10:01:20;;;;;;;9.20;8.40;;;;;;;;;;5022290;28;20453;-70
2022/09/08 10:03:59;;;;;;;9.50;7.50;;;;;;;;;;5035398;28;20437;-69
2022/09/08 10:06:27;;;;;;;8.90;8.10;;;;;;;;;;5034741;28;20473;-70
2022/09/08 10:09:25;;;;;;;8.00;7.30;;;;;;;;;;5035413;28;20443;-70
2022/09/08 10:12:22;;;;;;;6.63;6.03;;;;;;;;;;5034830;28;20446;-69
2022/09/08 10:15:15;;;;;;;6.50;5.90;;;;;;;;;;5034699;28;20438;-70
2022/09/08 10:17:57;;;;;;;6.23;5.50;;;;;;;;;;5035410;28;20461;-69
2022/09/08 10:20:42;;;;;;;9.87;6.60;;;;;;;;;;5029831;28;20451;-69
2022/09/08 10:23:31;;;;;;;5.70;5.20;;;;;;;;;;5034935;28;20446;-69
2022/09/08 10:26:06;;;;;;;5.37;4.97;;;;;;;;;;5034668;28;20570;-71
2022/09/08 10:28:50;;;;;;;5.63;5.23;;;;;;;;;;5035018;28;20425;-69
2022/09/08 10:31:35;;;;;;;4.37;3.93;;;;;;;;;;5034630;28;20473;-70
2022/09/08 10:34:07;;;;;;;8.73;3.70;;;;;;;;;;5031019;28;20850;-70
2022/09/08 10:36:46;;;;;;;6.20;5.40;;;;;;;;;;5034485;28;20448;-69
2022/09/08 10:39:20;;;;;;;3.73;3.37;;;;;;;;;;5034115;28;20423;-69
2022/09/08 10:42:08;;;;;;;4.20;3.80;;;;;;;;;;5033609;28;20433;-69
2022/09/08 10:44:41;;;;;;;3.97;3.57;;;;;;;;;;5033935;28;20448;-69
2022/09/08 10:47:35;;;;;;;4.00;3.70;;;;;;;;;;5033779;28;20472;-68
2022/09/08 10:50:14;;;;;;;3.87;3.53;;;;;;;;;;5034516;28;20440;-69
2022/09/08 10:52:49;;;;;;;6.03;4.30;;;;;;;;;;5035103;28;20460;-68
2022/09/08 10:55:34;;;;;;;4.13;3.77;;;;;;;;;;5033710;28;20441;-68
2022/09/08 10:58:19;;;;;;;6.33;4.47;;;;;;;;;;5034606;28;20418;-68
2022/09/08 11:00:50;;;;;;;8.03;4.13;;;;;;;;;;5034487;28;20503;-68
2022/09/08 11:03:31;;;;;;;3.77;3.50;;;;;;;;;;5034090;28;20436;-67
2022/09/08 11:06:00;;;;;;;6.40;3.90;;;;;;;;;;5033513;28;20477;-67
2022/09/08 11:08:46;;;;;;;4.47;3.80;;;;;;;;;;5033855;28;20449;-68
2022/09/08 11:11:33;;;;;;;4.83;4.43;;;;;;;;;;5033827;28;20447;-68
2022/09/08 11:14:05;;;;;;;4.70;4.30;;;;;;;;;;5032074;28;20487;-68
2022/09/08 11:16:38;;;;;;;7.17;4.57;;;;;;;;;;5033857;28;20516;-67
2022/09/08 11:19:25;;;;;;;5.10;4.70;;;;;;;;;;5034009;28;20439;-67
2022/09/08 11:22:01;;;;;;;5.70;5.10;;;;;;;;;;5033827;28;20512;-67
2022/09/08 11:24:31;;;;;;;6.30;5.77;;;;;;;;;;5034271;28;20436;-68
2022/09/08 11:27:04;;;;;;;5.23;4.70;;;;;;;;;;5033614;28;20481;-68
2022/09/08 11:29:35;;;;;;;6.30;5.10;;;;;;;;;;5033891;28;20460;-69
2022/09/08 11:32:07;;;;;;;5.43;4.93;;;;;;;;;;5033396;28;20518;-67
2022/09/08 11:35:02;;;;;;;5.57;5.07;;;;;;;;;;5033686;28;20451;-67
2022/09/08 11:37:44;;;;;;;6.13;5.30;;;;;;;;;;5033577;28;20438;-68
2022/09/08 11:40:29;;;;;;;6.10;5.40;;;;;;;;;;5033235;28;20434;-67
2022/09/08 11:43:12;;;;;;;7.17;6.37;;;;;;;;;;5022416;28;20450;-68
2022/09/08 11:45:47;;;;;;;7.60;6.90;;;;;;;;;;5032932;28;20474;-67
2022/09/08 11:48:30;;;;;;;7.37;6.60;;;;;;;;;;5033406;28;20436;-67
2022/09/08 11:51:00;;;;;;;9.63;8.17;;;;;;;;;;5033830;28;20442;-68
2022/09/08 11:53:42;;;;;;;8.27;7.13;;;;;;;;;;5033293;28;20437;-67
2022/09/08 11:56:21;;;;;;;7.83;7.13;;;;;;;;;;5032902;28;20439;-67
2022/09/08 11:58:57;;;;;;;8.20;7.47;;;;;;;;;;5034064;28;20438;-67
2022/09/08 12:01:40;;;;;;;9.47;8.57;;;;;;;;;;5033410;28;20908;-67
2022/09/08 12:04:27;;;;;;;9.20;8.30;;;;;;;;;;5033478;28;20431;-67
2022/09/08 12:07:27;;;;;;;8.90;8.00;;;;;;;;;;5032758;28;20466;-67
2022/09/08 12:10:13;;;;;;;7.37;6.77;;;;;;;;;;5033420;28;20418;-67
2022/09/08 12:12:46;;;;;;;7.87;7.07;;;;;;;;;;5032937;28;20532;-67
2022/09/08 12:15:28;;;;;;;9.30;7.40;;;;;;;;;;5032787;28;20435;-67
2022/09/08 12:18:04;;;;;;;9.90;7.47;;;;;;;;;;5033050;28;20447;-67
2022/09/08 12:20:35;;;;;;;7.90;7.23;;;;;;;;;;5032824;28;20440;-66
2022/09/08 12:23:15;;;;;;;8.30;7.57;;;;;;;;;;5032885;28;20530;-66
2022/09/08 12:25:51;;;;;;;7.83;7.17;;;;;;;;;;5032604;28;20434;-66
2022/09/08 12:28:24;;;;;;;8.73;6.13;;;;;;;;;;5032924;28;20790;-66
2022/09/08 12:31:00;;;;;;;8.73;5.70;;;;;;;;;;5032985;28;20581;-66
2022/09/08 12:33:45;;;;;;;6.60;6.00;;;;;;;;;;5032975;28;20548;-66
2022/09/08 12:36:17;;;;;;;6.23;5.73;;;;;;;;;;5029142;28;20454;-67
2022/09/08 12:38:51;;;;;;;7.43;6.70;;;;;;;;;;5032821;28;20422;-66
2022/09/08 12:41:36;;;;;;;8.87;6.40;;;;;;;;;;5033361;28;20426;-67
2022/09/08 12:44:11;;;;;;;10.93;6.50;;;;;;;;;;5032747;28;20549;-66
2022/09/08 12:46:46;;;;;;;6.83;6.10;;;;;;;;;;5032700;28;20561;-66
2022/09/08 12:49:24;;;;;;;6.53;5.80;;;;;;;;;;5032518;28;20480;-66
2022/09/08 12:51:56;;;;;;;7.30;6.70;;;;;;;;;;5032314;28;20442;-66
2022/09/08 12:54:30;;;;;;;7.00;6.30;;;;;;;;;;5032265;28;20442;-66
2022/09/08 12:57:06;;;;;;;6.27;5.67;;;;;;;;;;5032705;28;20779;-69
2022/09/08 12:59:38;;;;;;;7.40;6.80;;;;;;;;;;5032982;28;20432;-67
2022/09/08 13:02:17;;;;;;;7.00;6.30;;;;;;;;;;5032095;28;20450;-66
2022/09/08 13:04:51;;;;;;;6.63;6.03;;;;;;;;;;5033285;28;20438;-66
2022/09/08 13:07:23;;;;;;;6.90;5.10;;;;;;;;;;5036392;28;20905;-65
2022/09/08 13:09:57;;;;;;;5.30;4.80;;;;;;;;;;5036156;28;20792;-65
2022/09/08 13:12:42;;;;;;;4.93;3.83;;;;;;;;;;5035387;28;20439;-65
2022/09/08 13:15:17;;;;;;;4.83;3.97;;;;;;;;;;5035342;28;20426;-66
2022/09/08 13:17:47;;;;;;;5.30;3.83;;;;;;;;;;5034373;28;20449;-66
2022/09/08 13:20:20;;;;;;;5.00;4.23;;;;;;;;;;5035407;28;20435;-65
2022/09/08 13:22:51;;;;;;;4.50;4.00;;;;;;;;;;5035742;28;20796;-66
2022/09/08 13:25:24;;;;;;;7.70;3.60;;;;;;;;;;5035403;28;20776;-66
2022/09/08 13:28:02;;;;;;;3.57;3.23;;;;;;;;;;5035398;28;20469;-67
2022/09/08 13:30:35;;;;;;;3.33;2.97;;;;;;;;;;5034889;28;20794;-66
2022/09/08 13:33:23;;;;;;;5.50;3.60;;;;;;;;;;5035248;28;20441;-67
2022/09/08 13:36:02;;;;;;;3.10;2.90;;;;;;;;;;5030227;28;20540;-66
2022/09/08 13:38:40;;;;;;;3.70;3.40;;;;;;;;;;5035249;28;20438;-65
2022/09/08 13:41:15;;;;;;;7.87;3.80;;;;;;;;;;5035025;28;20518;-65
2022/09/08 13:43:53;;;;;;;5.23;3.37;;;;;;;;;;5034303;28;20433;-65
2022/09/08 13:46:25;;;;;;;3.60;2.93;;;;;;;;;;5035006;28;20971;-65
2022/09/08 13:48:57;;;;;;;4.60;2.97;;;;;;;;;;5034736;28;20453;-64
2022/09/08 13:51:45;;;;;;;4.20;2.83;;;;;;;;;;5035078;28;20437;-65
2022/09/08 13:54:36;;;;;;;7.60;2.60;;;;;;;;;;5030075;28;20466;-65
2022/09/08 13:57:15;;;;;;;4.27;3.50;;;;;;;;;;5034685;28;20914;-65
2022/09/08 13:59:50;;;;;;;3.57;2.77;;;;;;;;;;5034727;28;20441;-65
2022/09/08 14:02:24;;;;;;;3.83;2.80;;;;;;;;;;5035135;28;20450;-65
2022/09/08 14:04:57;;;;;;;3.23;2.30;;;;;;;;;;5034228;28;20443;-65
2022/09/08 14:07:26;;;;;;;5.10;2.80;;;;;;;;;;5034980;28;20480;-65
2022/09/08 14:10:15;;;;;;;4.40;2.57;;;;;;;;;;5034532;28;20442;-65
2022/09/08 14:12:50;;;;;;;2.53;2.30;;;;;;;;;;5034047;28;20427;-65
2022/09/08 14:15:19;;;;;;;5.30;2.23;;;;;;;;;;5033988;28;20862;-65
2022/09/08 14:17:52;;;;;;;3.60;2.10;;;;;;;;;;5033134;28;20490;-65
2022/09/08 14:20:24;;;;;;;2.60;2.20;;;;;;;;;;5034130;28;20430;-65
2022/09/08 14:22:58;;;;;;;2.33;2.13;;;;;;;;;;5034355;28;20447;-66
2022/09/08 14:25:28;;;;;;;6.07;2.20;;;;;;;;;;5034413;28;20427;-66
2022/09/08 14:28:04;;;;;;;3.07;1.93;;;;;;;;;;5033805;28;20564;-66
2022/09/08 14:30:36;;;;;;;3.70;2.20;;;;;;;;;;5033698;28;20443;-66
2022/09/08 14:33:17;;;;;;;2.10;1.90;;;;;;;;;;5033866;28;20929;-66
2022/09/08 14:35:46;;;;;;;1.87;1.77;;;;;;;;;;5034424;28;20427;-66
2022/09/08 14:38:23;;;;;;;2.20;2.00;;;;;;;;;;5034064;28;20811;-66
2022/09/08 14:40:58;;;;;;;3.97;1.70;;;;;;;;;;5033898;28;20422;-66
2022/09/08 14:43:42;;;;;;;3.83;2.23;;;;;;;;;;5034444;28;20437;-66
2022/09/08 14:46:14;;;;;;;4.50;2.00;;;;;;;;;;5033582;28;20997;-65
2022/09/08 14:48:57;;;;;;;1.70;1.57;;;;;;;;;;5033212;28;20476;-65
2022/09/08 14:51:32;;;;;;;3.80;2.30;;;;;;;;;;5033666;28;20418;-65
2022/09/08 14:54:14;;;;;;;1.83;1.73;;;;;;;;;;5034035;28;20426;-65
2022/09/08 14:56:43;;;;;;;2.90;2.10;;;;;;;;;;5033940;28;20435;-65
2022/09/08 14:59:23;;;;;;;3.70;2.37;;;;;;;;;;5033173;28;20458;-65
2022/09/08 15:01:52;;;;;;;3.77;2.33;;;;;;;;;;5033271;28;20961;-65
2022/09/08 15:04:24;;;;;;;4.93;2.30;;;;;;;;;;5033520;28;20449;-65